EHEH/EIN METAR and TAF weather

Enter ICAO airport designator
Station Type Date Time Source
EHEH METAR 2018/01/24 07:27 UTC NOAA

EHEH 240727Z AUTO 20012KT 170V230 9999 SCT017 SCT021 OVC034 12/10 Q1015 WHT 20014G25KT 9999 FEW008 SCT010 OVC013 TEMPO SCT006 BKN010


Station Type Date Time Source
EHEH Decoded METAR 2018/01/24 07:27 UTC NOAA

Eindhoven, Netherlands (EHEH) 51-27N 005-25E 28M
Jan 24, 2018 - 02:27 AM EST / 2018.01.24 0727 UTC
Wind: from the SSW (200 degrees) at 14 MPH (12 KT) (direction variable):0
Visibility: greater than 7 mile(s):0
Sky conditions: overcast
Temperature: 53 F (12 C)
Dew Point: 50 F (10 C)
Relative Humidity: 87%
Pressure (altimeter): 29.97 in. Hg (1015 hPa)
ob: EHEH 240727Z AUTO 20012KT 170V230 9999 SCT017 SCT021 OVC034 12/10 Q1015 WHT 20014G25KT 9999 FEW008 SCT010 OVC013 TEMPO SCT006 BKN010
cycle: 7

Station Type Date Time Source
EHEH TAF 2018/01/24 06:39 UTC NOAA

TAF TAF EHEH 240529Z 2406/2512 20013KT 9999 FEW009 BKN012 OVC014 PROB40
TEMPO 2406/2409 SCT006 BKN010
BECMG 2410/2413 20017G32KT BKN020
BECMG 2420/2423 23009KT
TEMPO 2421/2501 3000 RA SHRA SCT007 OVC010 SCT018CB PROB30
TEMPO 2507/2512 4000 SHRA FEW012 FEW015CB SCT020


Example: see airport list